Voidomatis — A8FX2 — position and weather

sailwx.info

Track history (hours):
 
Tides and Currents Weather Stations Pressure Air Temp Water Temp Dewpoint Dewpoint Depression Visibility Wind Speed Wind Dir Waves Ship Positions

Voidomatis

Last reported at 2014-Dec-22 08:33 UTC. Time now 2014-Dec-22 09:11 UTC.
Position N 32°02' W 118°49'.

Length 213 m; draft 9.2 m.

Type: Tanker. MMSI: 636012508.

Date/timePositionNaut miles runAvg speedWind from/ knotsBaromVisibWave heightAir tempDewpointWater temp
2014-Dec-22 08:33N 32°02' W 118°49'9 6.5
2014-Dec-22 07:15N 32°02' W 118°39'3 4.6
2014-Dec-22 06:33N 32°02' W 118°35'2 1.7
2014-Dec-22 05:33N 32°02' W 118°37'2 1.8
2014-Dec-22 04:24N 32°01' W 118°40'2 1.7
2014-Dec-22 03:32N 32°01' W 118°42'2 1.6
2014-Dec-22 02:31N 32°01' W 118°43'1 1.3
2014-Dec-22 01:32N 32°00' W 118°45'2 1.4
2014-Dec-22 00:23N 32°00' W 118°47'1 1.2
2014-Dec-21 23:33N 31°60' W 118°48'1 1.3
2014-Dec-21 22:34N 31°59' W 118°49'3 1.4
2014-Dec-21 20:22N 31°59' W 118°53'  
Track history (hours):
 
Tides and Currents Weather Stations Pressure Air Temp Water Temp Dewpoint Dewpoint Depression Visibility Wind Speed Wind Dir Waves Ship Positions

Voidomatis

Last reported at 2014-Dec-22 08:33 UTC. Time now 2014-Dec-22 09:11 UTC.
Position N 32°02' W 118°49'.

Length 213 m; draft 9.2 m.

Type: Tanker. MMSI: 636012508.

Date/timePositionNaut miles runAvg speedWind from/ knotsBaromVisibWave heightAir tempDewpointWater temp
2014-Dec-22 08:33N 32°02' W 118°49'9 6.5
2014-Dec-22 07:15N 32°02' W 118°39'3 4.6
2014-Dec-22 06:33N 32°02' W 118°35'2 1.7
2014-Dec-22 05:33N 32°02' W 118°37'2 1.8
2014-Dec-22 04:24N 32°01' W 118°40'2 1.7
2014-Dec-22 03:32N 32°01' W 118°42'2 1.6
2014-Dec-22 02:31N 32°01' W 118°43'1 1.3
2014-Dec-22 01:32N 32°00' W 118°45'2 1.4
2014-Dec-22 00:23N 32°00' W 118°47'1 1.2
2014-Dec-21 23:33N 31°60' W 118°48'1 1.3
2014-Dec-21 22:34N 31°59' W 118°49'3 1.4
2014-Dec-21 20:22N 31°59' W 118°53'  

Dump ship's entire track history